Allerton, New York
Current Conditions -  °F | °C
As of 3:51 AM on Wednesday 28 Jan 2015 (Local Time) from KLGA Reporting Station
Scattered Clouds Scattered Clouds  
Wind Chill:   Ceiling: Unl
Heat Index: 18°   Visibility: 10mi
Dew Point:   Wind: 15mph
Humidity: 52%   Direction: 310°NW
Pressure: 29.92"   Gusts: 23mph
Location:  40.8778°N, 73.8721°W
Report Text: KLGA 280851Z 31013G20KT 10SM SCT160 M08/M16 A2992 RMK AO2 SLP130 T10781161 51018 $
Loading
Personal Weather Stations






























Interactive Weather Map New forecast layout! Learn more

10-Day Weather Forecast

Advertisements
Track Severe Weather on mobile